GMME

Rabat-Salé Airport

Rabat, Morocco
TAF GMME 212300Z 2200/2306 14006KT 6000 SCT013 SCT016 TEMPO 2203/2209 3000 BR BKN010 PROB30 TEMPO 2204/2208 0500 FG BECMG 2211/2213 26008KT BKN013 BKN015
Issued Valid From Valid To
Jan-21 @ 23:00 UTC
(an hour ago)
Jan-22 @ 00:00 UTC
(27 minutes ago)
Jan-23 @ 06:00 UTC
(-1 days ago)
Jan-22 @ 00:00 to Jan-22 @ 11:00
TAF GMME 212300Z 2200/2306 14006KT 6000 SCT013 SCT016
Wind Visibility Clouds
140° at 6 knots 6,003 meters
  • Scattered at 1,300' AGL
  • Scattered at 1,600' AGL
Temporary Jan-22 @ 03:00 to Jan-22 @ 09:00
TEMPO 2203/2209 3000 BR BKN010
Visibility Clouds Conditions
2,993 meters
  • Broken at 1,000' AGL
  • Mist
Temporary  (Probability 30%) Jan-22 @ 04:00 to Jan-22 @ 08:00
PROB30 TEMPO 2204/2208 0500 FG
Visibility Conditions
499 meters
  • Fog
Becoming Jan-22 @ 11:00 to Jan-23 @ 06:00
BECMG 2211/2213 26008KT BKN013 BKN015
Wind Visibility Clouds
260° at 8 knots 6,003 meters
  • Broken at 1,300' AGL
  • Broken at 1,500' AGL
TAF GMME 212300Z 2200/2306 14006KT 6000 SCT013 SCT016 TEMPO 2203/2209 3000 BR BKN010 PROB30 TEMPO 2204/2208 0500 FG BECMG 2211/2213 26008KT BKN013 BKN015
Issued Jan-21 @ 23:00 UTC
(an hour ago)
Valid From Jan-22 @ 00:00 UTC
(27 minutes ago)
Valid To Jan-23 @ 06:00 UTC
(-1 days ago)
Jan-22 @ 00:00 - Jan-22 @ 11:00
Wind Visibility
140° at 6 knots 6,003 meters
Clouds
  • Scattered at 1,300' AGL
  • Scattered at 1,600' AGL
Temporary Jan-22 @ 03:00 - Jan-22 @ 09:00
Clouds
  • Broken at 1,000' AGL
Conditions
  • Mist
Probability 30% Temporary Jan-22 @ 04:00 - Jan-22 @ 08:00
Conditions
  • Fog
Becoming Jan-22 @ 11:00 - Jan-23 @ 06:00
Wind Visibility
260° at 8 knots 6,003 meters
Clouds
  • Broken at 1,300' AGL
  • Broken at 1,500' AGL